Time;durP1;ratioP1;P1;durP2;ratioP2;P2;SDS_P1;SDS_P2;PMS_P1;PMS_P2;Temp;Humidity;BMP_temperature;BMP_pressure;BME280_temperature;BME280_humidity;BME280_pressure;Samples;Min_cycle;Max_cycle;Signal;HPM_P1;HPM_P2
2022/01/15 00:01:15;;;;;;;20.77;3.90;;;25.30;99.90;;;;;;5032379;28;20021;-66
2022/01/15 00:03:42;;;;;;;19.33;4.15;;;25.60;99.90;;;;;;5020322;28;20025;-66
2022/01/15 00:06:10;;;;;;;10.40;3.55;;;25.90;99.90;;;;;;5028998;28;20513;-67
2022/01/15 00:08:37;;;;;;;11.27;4.10;;;26.20;99.90;;;;;;5029586;28;20463;-68
2022/01/15 00:11:04;;;;;;;14.18;3.85;;;26.30;99.90;;;;;;5024490;28;20098;-66
2022/01/15 00:13:32;;;;;;;14.02;3.55;;;26.40;99.90;;;;;;5025873;28;20449;-67
2022/01/15 00:16:06;;;;;;;14.25;3.83;;;26.40;99.90;;;;;;5026748;28;20032;-67
2022/01/15 00:19:00;;;;;;;12.32;4.00;;;26.50;99.90;;;;;;5027088;28;20133;-67
2022/01/15 00:21:27;;;;;;;12.73;3.17;;;26.70;99.90;;;;;;5031752;28;20029;-66
2022/01/15 00:23:55;;;;;;;9.38;3.42;;;26.60;99.90;;;;;;5017263;28;20393;-67
2022/01/15 00:26:22;;;;;;;13.93;4.90;;;26.50;99.90;;;;;;5024054;28;20338;-66
2022/01/15 00:28:50;;;;;;;24.65;4.82;;;26.50;99.90;;;;;;5022118;28;20072;-67
2022/01/15 00:31:17;;;;;;;19.50;4.47;;;26.30;99.90;;;;;;5030363;28;20037;-66
2022/01/15 00:33:45;;;;;;;20.15;4.03;;;26.20;99.90;;;;;;5024044;28;20018;-66
2022/01/15 00:36:12;;;;;;;13.43;4.70;;;26.10;99.90;;;;;;5026590;28;20026;-66
2022/01/15 00:38:39;;;;;;;16.38;4.40;;;25.90;99.90;;;;;;5023111;28;20101;-66
2022/01/15 00:41:07;;;;;;;21.73;5.00;;;25.90;99.90;;;;;;5022751;28;20029;-66
2022/01/15 00:43:34;;;;;;;12.05;3.60;;;25.80;99.90;;;;;;5020730;28;20030;-66
2022/01/15 00:46:01;;;;;;;13.73;4.50;;;25.70;99.90;;;;;;5023509;28;20076;-66
2022/01/15 00:48:29;;;;;;;19.50;4.32;;;25.70;99.90;;;;;;5018466;28;20053;-66
2022/01/15 00:50:56;;;;;;;17.90;4.22;;;25.70;99.90;;;;;;5028479;28;20091;-67
2022/01/15 00:53:24;;;;;;;18.67;4.55;;;25.60;99.90;;;;;;5022439;28;20033;-66
2022/01/15 00:55:51;;;;;;;17.73;4.30;;;25.60;99.90;;;;;;5030395;28;20030;-66
2022/01/15 00:58:18;;;;;;;14.38;3.83;;;25.60;99.90;;;;;;5032356;28;20014;-66
2022/01/15 01:00:46;;;;;;;19.55;4.32;;;25.60;99.90;;;;;;5031830;28;20397;-66
2022/01/15 01:03:13;;;;;;;13.27;4.18;;;25.60;99.90;;;;;;5016129;28;20061;-66
2022/01/15 01:05:41;;;;;;;12.93;5.20;;;25.50;99.90;;;;;;5023756;28;20033;-66
2022/01/15 01:08:08;;;;;;;17.77;4.97;;;25.50;99.90;;;;;;5032192;28;20085;-66
2022/01/15 01:10:55;;;;;;;16.65;5.00;;;25.50;99.90;;;;;;5025887;28;20057;-67
2022/01/15 01:20:04;;;;;;;14.52;4.55;;;25.40;99.90;;;;;;5025302;28;20394;-66
2022/01/15 01:24:46;;;;;;;13.60;4.40;;;25.40;99.90;;;;;;5021812;28;20041;-65
2022/01/15 01:27:22;;;;;;;14.95;5.07;;;25.30;99.90;;;;;;5019450;28;20022;-65
2022/01/15 01:30:05;;;;;;;21.88;5.10;;;25.30;99.90;;;;;;5029459;28;20051;-65
2022/01/15 01:35:30;;;;;;;14.57;4.45;;;25.30;99.90;;;;;;5028151;28;20429;-65
2022/01/15 01:38:06;;;;;;;20.75;5.15;;;25.30;99.90;;;;;;5020697;28;20117;-65
2022/01/15 01:40:39;;;;;;;14.15;4.50;;;25.30;99.90;;;;;;5029617;28;20021;-65
2022/01/15 01:43:38;;;;;;;18.45;4.57;;;25.40;99.90;;;;;;5031159;28;20025;-65
2022/01/15 01:46:20;;;;;;;18.73;5.32;;;25.40;99.90;;;;;;5017874;28;20029;-66
2022/01/15 01:48:43;;;;;;;19.45;5.40;;;25.40;99.90;;;;;;5018125;28;20125;-65
2022/01/15 01:51:24;;;;;;;18.30;5.10;;;25.50;99.90;;;;;;5030406;28;20418;-66
2022/01/15 01:53:52;;;;;;;13.40;4.25;;;25.60;99.90;;;;;;5018813;28;20033;-66
2022/01/15 01:56:20;;;;;;;14.57;4.63;;;25.70;99.90;;;;;;5024395;28;20080;-66
2022/01/15 01:58:48;;;;;;;16.05;5.18;;;25.70;99.90;;;;;;5018830;28;20018;-66
2022/01/15 02:01:15;;;;;;;13.20;4.47;;;25.70;99.90;;;;;;5013284;28;20385;-66
2022/01/15 02:03:43;;;;;;;18.25;4.80;;;25.70;99.90;;;;;;5015375;28;20022;-66
2022/01/15 02:06:10;;;;;;;13.02;4.45;;;25.60;99.90;;;;;;5028194;28;20155;-66
2022/01/15 02:08:38;;;;;;;18.83;4.65;;;25.60;99.90;;;;;;5020759;28;20390;-67
2022/01/15 02:11:06;;;;;;;21.23;4.35;;;25.70;99.90;;;;;;5015329;28;20045;-67
2022/01/15 02:13:43;;;;;;;15.90;4.95;;;25.70;99.90;;;;;;5028227;28;20041;-66
2022/01/15 02:16:12;;;;;;;22.70;4.50;;;25.80;99.90;;;;;;5026979;28;20363;-66
2022/01/15 02:18:40;;;;;;;21.10;4.50;;;26.10;99.90;;;;;;5018497;28;20504;-66
2022/01/15 02:23:44;;;;;;;14.20;4.38;;;26.20;99.90;;;;;;5013086;28;20026;-65
2022/01/15 02:26:26;;;;;;;19.55;4.25;;;26.40;99.90;;;;;;5029441;28;20034;-66
2022/01/15 02:29:12;;;;;;;19.80;5.15;;;26.90;99.90;;;;;;5030426;28;20037;-66
2022/01/15 02:31:39;;;;;;;15.60;4.38;;;27.00;99.90;;;;;;5017797;28;20040;-66
2022/01/15 02:34:07;;;;;;;12.15;4.60;;;27.10;99.90;;;;;;5020417;28;20116;-66
2022/01/15 02:36:37;;;;;;;12.75;3.80;;;27.40;99.90;;;;;;5016780;28;20025;-66
2022/01/15 02:39:07;;;;;;;9.73;3.28;;;27.30;99.90;;;;;;5025442;28;20104;-68
2022/01/15 02:41:37;;;;;;;12.20;4.63;;;27.20;99.90;;;;;;5026922;28;20025;-68
2022/01/15 02:44:10;;;;;;;37.75;12.95;;;27.20;99.90;;;;;;5027154;28;20635;-68
2022/01/15 02:49:18;;;;;;;15.95;4.38;;;27.60;99.90;;;;;;5018447;28;20057;-68
2022/01/15 02:51:45;;;;;;;33.70;15.02;;;27.50;99.90;;;;;;5029144;28;20040;-69
2022/01/15 02:54:13;;;;;;;25.60;9.70;;;27.50;99.90;;;;;;5022987;28;20108;-68
2022/01/15 02:56:43;;;;;;;21.98;9.88;;;27.50;99.90;;;;;;5020059;28;20071;-68
2022/01/15 02:59:18;;;;;;;13.27;5.10;;;27.50;99.90;;;;;;5022670;28;20084;-69
2022/01/15 03:01:48;;;;;;;21.00;4.90;;;27.40;99.90;;;;;;5024276;28;20030;-69
2022/01/15 03:04:17;;;;;;;16.50;5.97;;;27.20;99.90;;;;;;5023516;28;20398;-69
2022/01/15 03:06:44;;;;;;;11.93;4.03;;;27.20;99.90;;;;;;5029192;28;20039;-69
2022/01/15 03:09:11;;;;;;;13.73;3.90;;;27.10;99.90;;;;;;5027672;28;20462;-69
2022/01/15 03:11:40;;;;;;;12.93;4.45;;;27.00;99.90;;;;;;5030046;28;20038;-69
2022/01/15 03:14:08;;;;;;;15.00;4.10;;;27.00;99.90;;;;;;5030114;28;20037;-69
2022/01/15 03:16:36;;;;;;;14.80;3.92;;;26.90;99.90;;;;;;5027939;28;20046;-69
2022/01/15 03:19:03;;;;;;;17.55;3.78;;;26.90;99.90;;;;;;5027034;28;20025;-69
2022/01/15 03:21:30;;;;;;;12.20;3.70;;;26.90;99.90;;;;;;5031857;28;20030;-69
2022/01/15 03:23:58;;;;;;;19.63;5.07;;;26.90;99.90;;;;;;5031063;28;20036;-69
2022/01/15 03:26:25;;;;;;;18.35;3.03;;;26.90;99.90;;;;;;5027199;28;20022;-69
2022/01/15 03:28:52;;;;;;;18.45;4.20;;;26.80;99.90;;;;;;5019041;28;20112;-69
2022/01/15 03:31:20;;;;;;;10.55;3.28;;;26.70;99.90;;;;;;5020175;28;20033;-69
2022/01/15 03:33:47;;;;;;;13.85;3.72;;;26.60;99.90;;;;;;5018351;28;20065;-69
2022/01/15 03:36:14;;;;;;;13.65;3.33;;;26.40;99.90;;;;;;5029876;28;20026;-69
2022/01/15 03:38:42;;;;;;;12.32;3.15;;;26.30;99.90;;;;;;5031262;28;20032;-69
2022/01/15 03:41:09;;;;;;;14.20;3.33;;;26.20;99.90;;;;;;5017670;28;20474;-69
2022/01/15 03:43:36;;;;;;;14.48;3.95;;;26.30;99.90;;;;;;5028012;28;20033;-68
2022/01/15 03:46:04;;;;;;;12.25;2.72;;;26.20;99.90;;;;;;5034273;28;20115;-68
2022/01/15 03:48:31;;;;;;;15.70;3.38;;;26.40;99.90;;;;;;5023812;28;20529;-69
2022/01/15 03:50:58;;;;;;;15.65;2.75;;;26.70;99.90;;;;;;5027009;28;20038;-69
2022/01/15 03:53:26;;;;;;;13.68;2.63;;;27.00;99.90;;;;;;5015283;28;20105;-68
2022/01/15 03:55:53;;;;;;;19.15;3.65;;;26.90;99.90;;;;;;5028861;28;20035;-66
2022/01/15 03:58:21;;;;;;;14.68;2.95;;;26.90;99.90;;;;;;5030866;28;20025;-66
2022/01/15 04:00:49;;;;;;;14.77;2.90;;;26.90;99.90;;;;;;5025967;28;20039;-67
2022/01/15 04:03:18;;;;;;;8.15;2.58;;;27.00;99.90;;;;;;5033882;28;20131;-67
2022/01/15 04:05:45;;;;;;;11.25;3.17;;;26.90;99.90;;;;;;5032827;28;20504;-66
2022/01/15 04:08:12;;;;;;;13.10;3.42;;;26.80;99.90;;;;;;5031842;28;20068;-67
2022/01/15 04:10:40;;;;;;;13.15;2.83;;;26.90;99.90;;;;;;5024180;28;20033;-67
2022/01/15 04:13:07;;;;;;;10.43;2.45;;;26.80;99.90;;;;;;5014808;28;20037;-66
2022/01/15 04:15:35;;;;;;;10.15;2.88;;;26.90;99.90;;;;;;5023070;28;20043;-66
2022/01/15 04:18:03;;;;;;;11.52;2.65;;;27.00;99.90;;;;;;5033370;28;20105;-66
2022/01/15 04:20:30;;;;;;;10.38;2.47;;;27.00;99.90;;;;;;5030891;28;20363;-64
2022/01/15 04:22:57;;;;;;;13.73;2.55;;;26.90;99.90;;;;;;5027173;28;20025;-64
2022/01/15 04:25:25;;;;;;;15.55;3.28;;;26.80;99.90;;;;;;5025443;28;20037;-65
2022/01/15 04:27:56;;;;;;;16.05;2.53;;;26.70;99.90;;;;;;5014033;28;20046;-65
2022/01/15 04:30:25;;;;;;;15.20;2.38;;;26.70;99.90;;;;;;5029166;28;20030;-65
2022/01/15 04:32:52;;;;;;;14.63;2.90;;;26.70;99.90;;;;;;5016146;28;20034;-65
2022/01/15 04:35:20;;;;;;;16.20;3.78;;;26.50;99.90;;;;;;5027745;28;20022;-65
2022/01/15 04:37:52;;;;;;;10.43;2.35;;;26.70;99.90;;;;;;5021426;28;20399;-65
2022/01/15 04:40:19;;;;;;;12.32;3.13;;;26.60;99.90;;;;;;5029296;28;20021;-65
2022/01/15 04:42:46;;;;;;;12.82;3.30;;;26.60;99.90;;;;;;5020123;28;20079;-65
2022/01/15 04:45:14;;;;;;;13.88;3.15;;;26.40;99.90;;;;;;5025137;28;20053;-65
2022/01/15 04:47:42;;;;;;;14.52;3.85;;;26.40;99.90;;;;;;5021638;28;20414;-65
2022/01/15 04:50:14;;;;;;;16.58;3.15;;;26.30;99.90;;;;;;5021849;28;20017;-65
2022/01/15 04:52:41;;;;;;;19.55;4.10;;;26.30;99.90;;;;;;5019426;28;20029;-65
2022/01/15 04:55:11;;;;;;;17.40;4.07;;;26.20;99.90;;;;;;5024608;28;20034;-65
2022/01/15 04:57:39;;;;;;;16.30;3.63;;;26.10;99.90;;;;;;5024192;28;20120;-65
2022/01/15 05:00:10;;;;;;;23.58;4.30;;;26.00;99.90;;;;;;5024741;28;20032;-65
2022/01/15 05:02:37;;;;;;;15.60;3.25;;;26.00;99.90;;;;;;5030378;28;20036;-64
2022/01/15 05:05:05;;;;;;;15.73;3.00;;;25.90;99.90;;;;;;5025533;28;20108;-65
2022/01/15 05:07:32;;;;;;;18.58;3.88;;;25.60;99.90;;;;;;5024706;28;20430;-65
2022/01/15 05:10:00;;;;;;;14.25;2.92;;;25.50;99.90;;;;;;5025703;28;20036;-65
2022/01/15 05:12:31;;;;;;;15.93;4.18;;;25.60;99.90;;;;;;5025855;28;20470;-65
2022/01/15 05:14:59;;;;;;;18.45;4.13;;;25.60;99.90;;;;;;5024919;28;20465;-64
2022/01/15 05:17:26;;;;;;;17.88;3.80;;;25.60;99.90;;;;;;5029091;28;20587;-64
2022/01/15 05:19:54;;;;;;;20.88;3.67;;;25.60;99.90;;;;;;5026212;28;20069;-65
2022/01/15 05:22:21;;;;;;;20.55;4.68;;;25.60;99.90;;;;;;5021316;28;20037;-65
2022/01/15 05:24:49;;;;;;;18.60;4.57;;;25.50;99.90;;;;;;5020050;28;20030;-64
2022/01/15 05:27:16;;;;;;;19.27;3.95;;;25.50;99.90;;;;;;5017884;28;20394;-64
2022/01/15 05:29:45;;;;;;;13.05;2.80;;;25.40;99.90;;;;;;5031301;28;20013;-64
2022/01/15 05:32:12;;;;;;;11.70;2.75;;;25.50;99.90;;;;;;5020178;28;20048;-64
2022/01/15 05:34:39;;;;;;;14.68;3.35;;;25.40;99.90;;;;;;5018683;28;20026;-64
2022/01/15 05:37:07;;;;;;;12.75;3.08;;;25.40;99.90;;;;;;5015810;28;20363;-64
2022/01/15 05:39:34;;;;;;;16.73;3.70;;;25.40;99.90;;;;;;5025551;28;20029;-64
2022/01/15 05:42:01;;;;;;;15.25;3.00;;;25.40;99.90;;;;;;5023819;28;20029;-64
2022/01/15 05:44:28;;;;;;;15.18;3.55;;;25.40;99.90;;;;;;5023903;28;20034;-64
2022/01/15 05:46:56;;;;;;;12.88;3.25;;;25.40;99.90;;;;;;5018023;28;20046;-65
2022/01/15 05:49:23;;;;;;;19.67;3.70;;;25.50;99.90;;;;;;5026135;28;20108;-65
2022/01/15 05:51:50;;;;;;;16.80;3.47;;;25.40;99.90;;;;;;5024011;28;20407;-64
2022/01/15 05:54:18;;;;;;;18.27;3.42;;;25.40;99.90;;;;;;5026770;28;20021;-64
2022/01/15 05:56:45;;;;;;;11.13;2.83;;;25.40;99.90;;;;;;5021916;28;20029;-65
2022/01/15 05:59:13;;;;;;;15.13;3.47;;;25.50;99.90;;;;;;5019752;28;20099;-64
2022/01/15 06:01:40;;;;;;;14.55;3.10;;;25.50;99.90;;;;;;5028820;28;20390;-64
2022/01/15 06:04:08;;;;;;;9.20;2.58;;;25.50;99.90;;;;;;5021171;28;20030;-64
2022/01/15 06:06:35;;;;;;;20.30;4.10;;;25.60;99.90;;;;;;5022348;28;20022;-64
2022/01/15 06:09:03;;;;;;;13.77;2.95;;;25.60;99.90;;;;;;5021160;28;20438;-65
2022/01/15 06:11:31;;;;;;;14.15;3.03;;;25.70;99.90;;;;;;5025532;28;20075;-64
2022/01/15 06:13:58;;;;;;;13.57;2.97;;;25.80;99.90;;;;;;5030061;28;20425;-64
2022/01/15 06:16:25;;;;;;;18.80;3.58;;;25.90;99.90;;;;;;5027314;28;20381;-64
2022/01/15 06:18:53;;;;;;;10.85;3.75;;;26.20;99.90;;;;;;5028225;28;20055;-64
2022/01/15 06:21:20;;;;;;;14.80;3.28;;;26.20;99.90;;;;;;5020987;28;20542;-64
2022/01/15 06:23:48;;;;;;;13.30;3.65;;;26.20;99.90;;;;;;5025941;28;20080;-64
2022/01/15 06:26:15;;;;;;;15.05;2.92;;;26.30;99.90;;;;;;5029543;28;20025;-64
2022/01/15 06:28:43;;;;;;;13.50;4.07;;;26.50;99.90;;;;;;5020958;28;20037;-64
2022/01/15 06:31:10;;;;;;;12.60;3.30;;;26.40;99.90;;;;;;5011762;28;20068;-64
2022/01/15 06:33:38;;;;;;;11.30;2.25;;;26.20;99.90;;;;;;5031085;28;20040;-64
2022/01/15 06:36:05;;;;;;;10.98;3.17;;;26.10;99.90;;;;;;5026145;28;20029;-64
2022/01/15 06:38:32;;;;;;;15.30;2.97;;;26.00;99.90;;;;;;5025478;28;20408;-64
2022/01/15 06:41:00;;;;;;;13.50;3.33;;;25.90;99.90;;;;;;5029968;28;20498;-64
2022/01/15 06:43:27;;;;;;;15.52;4.25;;;25.80;99.90;;;;;;5022404;28;20028;-64
2022/01/15 06:45:54;;;;;;;10.95;2.95;;;25.80;99.90;;;;;;5026713;28;20046;-64
2022/01/15 06:48:22;;;;;;;10.27;3.03;;;25.80;99.90;;;;;;5022691;28;20048;-64
2022/01/15 06:50:49;;;;;;;8.63;2.78;;;25.90;99.90;;;;;;5023626;28;20033;-64
2022/01/15 06:53:17;;;;;;;10.95;3.60;;;26.10;99.90;;;;;;5029274;28;20026;-64
2022/01/15 06:55:49;;;;;;;17.52;3.17;;;26.30;99.90;;;;;;5028780;28;20520;-64
2022/01/15 06:58:16;;;;;;;13.27;2.83;;;26.40;99.90;;;;;;5013187;28;20029;-64
2022/01/15 07:00:44;;;;;;;9.90;2.35;;;26.40;99.90;;;;;;5016162;28;20018;-64
2022/01/15 07:03:11;;;;;;;12.10;3.60;;;26.50;99.90;;;;;;5023275;28;20037;-64
2022/01/15 07:05:39;;;;;;;11.75;2.08;;;26.50;99.90;;;;;;5026242;28;20025;-64
2022/01/15 07:08:07;;;;;;;11.52;3.00;;;26.60;99.90;;;;;;5018223;28;20419;-64
2022/01/15 07:10:39;;;;;;;11.43;2.00;;;26.80;99.90;;;;;;5028244;28;20017;-64
2022/01/15 07:13:10;;;;;;;12.10;2.33;;;26.80;99.90;;;;;;5018679;28;20025;-64
2022/01/15 07:15:37;;;;;;;93.00;50.42;;;26.80;99.90;;;;;;5032429;28;20017;-64
2022/01/15 07:18:05;;;;;;;20.45;9.05;;;26.90;99.90;;;;;;5027168;28;20103;-64
2022/01/15 07:20:32;;;;;;;29.98;12.40;;;26.90;99.90;;;;;;5022031;28;20028;-64
2022/01/15 07:22:59;;;;;;;28.90;13.40;;;26.90;99.90;;;;;;5024716;28;20358;-65
2022/01/15 07:25:27;;;;;;;44.10;16.88;;;27.00;99.90;;;;;;5015896;28;20054;-64
2022/01/15 07:27:54;;;;;;;27.38;12.75;;;27.30;99.90;;;;;;5022552;28;20025;-64
2022/01/15 07:30:22;;;;;;;17.10;5.57;;;27.10;99.90;;;;;;5027960;28;20371;-64
2022/01/15 07:32:49;;;;;;;24.20;9.07;;;27.10;99.90;;;;;;5015080;28;20490;-64
2022/01/15 07:35:17;;;;;;;15.23;5.18;;;27.00;99.90;;;;;;5022120;28;20489;-64
2022/01/15 07:37:44;;;;;;;20.02;6.45;;;27.00;99.90;;;;;;5020783;28;20075;-64
2022/01/15 07:40:13;;;;;;;15.35;5.13;;;27.10;99.90;;;;;;5019669;28;20025;-64
2022/01/15 07:42:40;;;;;;;14.73;5.20;;;27.10;99.90;;;;;;5030358;28;20033;-64
2022/01/15 07:45:16;;;;;;;16.77;6.47;;;27.40;99.90;;;;;;5022146;28;20045;-64
2022/01/15 07:47:44;;;;;;;13.38;5.80;;;27.60;99.90;;;;;;5016265;28;20053;-64
2022/01/15 07:50:14;;;;;;;18.60;4.53;;;28.00;99.90;;;;;;5021884;28;20025;-64
2022/01/15 07:52:42;;;;;;;12.85;3.60;;;27.50;99.90;;;;;;5032627;28;20030;-64
2022/01/15 07:55:10;;;;;;;12.23;3.35;;;27.20;99.90;;;;;;5019953;28;20053;-64
2022/01/15 07:57:37;;;;;;;16.85;6.57;;;27.00;99.90;;;;;;5022958;28;20021;-64
2022/01/15 08:00:05;;;;;;;17.45;6.53;;;26.80;99.90;;;;;;5024110;28;20113;-64
2022/01/15 08:02:33;;;;;;;17.45;5.07;;;26.70;99.90;;;;;;5016370;28;20509;-64
2022/01/15 08:05:00;;;;;;;12.23;3.58;;;26.60;99.90;;;;;;5026613;28;20018;-64
2022/01/15 08:07:27;;;;;;;15.25;3.75;;;26.60;99.90;;;;;;5023639;28;20067;-64
2022/01/15 08:09:54;;;;;;;14.63;4.22;;;26.60;99.90;;;;;;5025468;28;20091;-64
2022/01/15 08:12:22;;;;;;;8.80;3.30;;;26.50;99.90;;;;;;5028262;28;20026;-64
2022/01/15 08:14:50;;;;;;;8.98;2.53;;;26.50;99.90;;;;;;5024028;28;20113;-64
2022/01/15 08:17:17;;;;;;;10.68;4.20;;;26.50;99.90;;;;;;5018039;28;20057;-64
2022/01/15 08:19:45;;;;;;;12.95;3.90;;;26.40;99.90;;;;;;5020270;28;20034;-63
2022/01/15 08:22:12;;;;;;;7.75;2.83;;;26.30;99.90;;;;;;5024033;28;20363;-63
2022/01/15 08:24:40;;;;;;;9.82;2.95;;;26.20;99.90;;;;;;5013228;28;20022;-63
2022/01/15 08:27:07;;;;;;;5.88;2.33;;;26.20;99.90;;;;;;5016526;28;20034;-63
2022/01/15 08:29:35;;;;;;;6.47;2.15;;;26.10;99.90;;;;;;5014793;28;20030;-63
2022/01/15 08:32:03;;;;;;;7.65;1.92;;;26.10;99.90;;;;;;5016423;28;20038;-63
2022/01/15 08:34:31;;;;;;;9.30;2.08;;;26.10;99.90;;;;;;5030022;28;20109;-63
2022/01/15 08:36:58;;;;;;;9.80;2.30;;;26.00;99.90;;;;;;5014824;28;20064;-63
2022/01/15 08:39:25;;;;;;;10.82;2.70;;;26.00;99.90;;;;;;5028935;28;20390;-63
2022/01/15 08:41:53;;;;;;;10.00;2.20;;;25.90;99.90;;;;;;5014314;28;20506;-63
2022/01/15 08:44:24;;;;;;;6.45;1.85;;;25.80;99.90;;;;;;5024236;28;20029;-63
2022/01/15 08:46:52;;;;;;;8.55;2.53;;;25.80;99.90;;;;;;5022694;28;20049;-63
2022/01/15 08:49:22;;;;;;;16.45;3.95;;;25.70;99.90;;;;;;5030156;28;20033;-63
2022/01/15 08:51:49;;;;;;;15.18;3.58;;;25.60;99.90;;;;;;5027698;28;20121;-63
2022/01/15 08:54:16;;;;;;;14.63;3.63;;;25.50;99.90;;;;;;5026892;28;20479;-63
2022/01/15 08:56:44;;;;;;;11.10;2.17;;;25.40;99.90;;;;;;5016616;28;20044;-63
2022/01/15 08:59:11;;;;;;;13.05;2.60;;;25.30;99.90;;;;;;5032268;28;20029;-63
2022/01/15 09:01:39;;;;;;;8.45;2.10;;;25.30;99.90;;;;;;5033455;28;20029;-63
2022/01/15 09:04:06;;;;;;;6.05;2.00;;;25.40;99.90;;;;;;5033757;28;20033;-63
2022/01/15 09:06:34;;;;;;;8.65;2.00;;;25.40;99.90;;;;;;5032165;28;20116;-63
2022/01/15 09:09:01;;;;;;;5.10;2.00;;;25.40;99.90;;;;;;5033594;28;20065;-63
2022/01/15 09:11:28;;;;;;;8.23;1.42;;;25.40;99.90;;;;;;5026289;28;20030;-63
2022/01/15 09:13:56;;;;;;;6.70;2.10;;;25.40;99.90;;;;;;5019449;28;20517;-63
2022/01/15 09:16:23;;;;;;;7.63;2.05;;;25.40;99.90;;;;;;5015894;28;20428;-63
2022/01/15 09:18:51;;;;;;;6.25;1.67;;;25.30;99.90;;;;;;5022064;28;20779;-63
2022/01/15 09:21:18;;;;;;;6.75;1.92;;;25.30;99.90;;;;;;5030190;28;20429;-63
2022/01/15 09:23:45;;;;;;;7.28;1.65;;;25.30;99.90;;;;;;5020306;28;20400;-63
2022/01/15 09:26:21;;;;;;;9.52;1.50;;;25.30;99.90;;;;;;5028682;28;20036;-63
2022/01/15 09:31:51;;;;;;;6.50;1.92;;;25.20;99.90;;;;;;5010679;28;20044;-63
2022/01/15 09:34:18;;;;;;;5.93;1.73;;;25.20;99.90;;;;;;5011425;28;20502;-63
2022/01/15 09:36:46;;;;;;;4.97;1.60;;;25.20;99.90;;;;;;5022329;28;20494;-65
2022/01/15 09:39:13;;;;;;;5.90;1.35;;;25.20;99.90;;;;;;5022600;28;20355;-65
2022/01/15 09:41:49;;;;;;;5.70;1.90;;;25.20;99.90;;;;;;5016554;28;20025;-65
2022/01/15 09:44:19;;;;;;;8.50;1.70;;;25.20;99.90;;;;;;5015646;28;20022;-65
2022/01/15 09:46:47;;;;;;;5.85;1.88;;;25.00;99.90;;;;;;5014615;28;20042;-65
2022/01/15 09:49:16;;;;;;;6.80;2.70;;;25.00;99.90;;;;;;5029895;28;20022;-65
2022/01/15 09:51:45;;;;;;;7.38;2.15;;;25.00;99.90;;;;;;5032704;28;20041;-65
2022/01/15 09:54:14;;;;;;;7.20;1.40;;;25.00;99.90;;;;;;5024069;28;20113;-65
2022/01/15 09:56:43;;;;;;;8.68;1.90;;;24.90;99.90;;;;;;5019576;28;20022;-65
2022/01/15 09:59:11;;;;;;;9.88;1.83;;;24.90;99.90;;;;;;5032864;28;20025;-65
2022/01/15 10:01:38;;;;;;;6.05;1.40;;;24.90;99.90;;;;;;5032767;28;20072;-65
2022/01/15 10:04:06;;;;;;;9.65;2.22;;;24.90;99.90;;;;;;5015643;28;20145;-65
2022/01/15 10:06:34;;;;;;;6.95;1.60;;;24.90;99.90;;;;;;5019912;28;20029;-65
2022/01/15 10:09:09;;;;;;;7.93;2.00;;;24.90;99.90;;;;;;5025701;28;20057;-65
2022/01/15 10:11:53;;;;;;;5.10;1.38;;;24.90;99.90;;;;;;5024152;28;20067;-65
2022/01/15 10:14:35;;;;;;;5.95;1.20;;;24.90;99.90;;;;;;5021117;28;20028;-65
2022/01/15 10:17:30;;;;;;;6.53;1.70;;;24.80;99.90;;;;;;5020348;28;20025;-65
2022/01/15 10:20:04;;;;;;;6.55;1.63;;;24.70;99.90;;;;;;5029425;28;20056;-65
2022/01/15 10:22:32;;;;;;;6.00;1.42;;;24.70;99.90;;;;;;5018730;28;20026;-66
2022/01/15 10:25:07;;;;;;;5.90;1.58;;;24.70;99.90;;;;;;5020356;28;20107;-65
2022/01/15 10:27:42;;;;;;;4.78;1.60;;;24.70;99.90;;;;;;5017395;28;20025;-66
2022/01/15 10:30:12;;;;;;;6.55;1.58;;;24.60;99.90;;;;;;5017280;28;20061;-66
2022/01/15 10:32:53;;;;;;;7.65;1.52;;;24.70;99.90;;;;;;5027605;28;20083;-66
2022/01/15 10:35:23;;;;;;;4.38;1.20;;;24.70;99.90;;;;;;5016438;28;20030;-65
2022/01/15 10:38:13;;;;;;;5.85;1.50;;;24.80;99.90;;;;;;5023540;28;20022;-65
2022/01/15 10:40:45;;;;;;;6.18;1.25;;;24.90;99.90;;;;;;5022124;28;20605;-65
2022/01/15 10:43:18;;;;;;;8.48;1.50;;;25.00;99.90;;;;;;5022822;28;20037;-66
2022/01/15 10:45:54;;;;;;;2.95;0.82;;;25.00;99.90;;;;;;5029998;28;20482;-65
2022/01/15 10:48:47;;;;;;;5.88;1.48;;;25.00;99.90;;;;;;5020016;28;20060;-65
2022/01/15 10:51:16;;;;;;;5.38;1.98;;;24.90;99.90;;;;;;5023772;28;20472;-66
2022/01/15 10:53:46;;;;;;;7.38;1.90;;;24.90;99.90;;;;;;5032686;28;20052;-66
2022/01/15 10:56:17;;;;;;;9.02;1.70;;;25.00;99.90;;;;;;5027684;28;20545;-65
2022/01/15 10:58:45;;;;;;;4.40;1.33;;;25.00;99.90;;;;;;5028233;28;20017;-65
2022/01/15 11:01:14;;;;;;;7.25;1.67;;;25.00;99.90;;;;;;5023328;28;20091;-66
2022/01/15 11:03:46;;;;;;;8.05;1.50;;;24.90;99.90;;;;;;5031473;28;20586;-65
2022/01/15 11:06:20;;;;;;;4.97;1.45;;;24.80;99.90;;;;;;5014771;28;20046;-65
2022/01/15 11:08:52;;;;;;;7.95;2.08;;;24.80;99.90;;;;;;5021942;28;20052;-66
2022/01/15 11:11:23;;;;;;;7.05;1.42;;;24.80;99.90;;;;;;5014951;28;20120;-66
2022/01/15 11:13:50;;;;;;;4.50;1.50;;;24.80;99.90;;;;;;5025568;28;20021;-66
2022/01/15 11:16:19;;;;;;;7.03;1.70;;;24.70;99.90;;;;;;5024582;28;20041;-66
2022/01/15 11:18:54;;;;;;;5.43;1.50;;;24.80;99.90;;;;;;5018334;28;20038;-66
2022/01/15 11:21:25;;;;;;;6.68;1.60;;;24.80;99.90;;;;;;5025739;28;20037;-66
2022/01/15 11:23:56;;;;;;;5.75;2.28;;;24.90;99.90;;;;;;5033943;28;20053;-65
2022/01/15 11:26:28;;;;;;;5.65;2.00;;;25.00;99.90;;;;;;5022343;28;20092;-66
2022/01/15 11:28:58;;;;;;;5.03;1.55;;;25.10;99.90;;;;;;5034533;28;20113;-65
2022/01/15 11:31:32;;;;;;;6.60;2.08;;;25.10;99.90;;;;;;5023449;28;20034;-65
2022/01/15 11:34:01;;;;;;;6.30;2.03;;;25.10;99.90;;;;;;5019553;28;20437;-65
2022/01/15 11:36:40;;;;;;;6.65;2.65;;;25.00;99.90;;;;;;5032838;28;20044;-65
2022/01/15 11:39:09;;;;;;;9.98;2.55;;;25.00;99.90;;;;;;5021152;28;20036;-65
2022/01/15 11:41:49;;;;;;;9.88;2.42;;;25.00;99.90;;;;;;5032549;28;20076;-66
2022/01/15 11:44:20;;;;;;;9.38;3.10;;;25.00;99.90;;;;;;5025307;28;20048;-66
2022/01/15 11:46:50;;;;;;;5.68;1.88;;;25.00;99.90;;;;;;5033456;28;20397;-66
2022/01/15 11:49:59;;;;;;;8.80;2.47;;;24.90;99.90;;;;;;5034752;28;20021;-66
2022/01/15 11:52:27;;;;;;;9.25;2.45;;;24.80;99.90;;;;;;5020498;28;20120;-65
2022/01/15 11:55:05;;;;;;;9.73;2.47;;;24.80;99.90;;;;;;5018547;28;20382;-65
2022/01/15 11:57:44;;;;;;;8.60;2.08;;;24.70;99.90;;;;;;5028347;28;20700;-65
2022/01/15 12:00:21;;;;;;;8.50;2.85;;;24.70;99.90;;;;;;5017791;28;20041;-66
2022/01/15 12:03:03;;;;;;;4.97;1.75;;;24.70;99.90;;;;;;5015854;28;20030;-66
2022/01/15 12:05:33;;;;;;;9.02;2.35;;;24.60;99.90;;;;;;5031616;28;20534;-65
2022/01/15 12:08:04;;;;;;;10.30;2.58;;;24.60;99.90;;;;;;5015677;28;20021;-64
2022/01/15 12:10:43;;;;;;;8.90;2.47;;;24.60;99.90;;;;;;5030365;28;20049;-66
2022/01/15 12:13:24;;;;;;;8.35;2.17;;;24.50;99.90;;;;;;5017388;28;20053;-65
2022/01/15 12:16:17;;;;;;;8.50;2.10;;;24.50;99.90;;;;;;5024002;28;20049;-66
2022/01/15 12:18:47;;;;;;;9.10;2.13;;;24.40;99.90;;;;;;5028224;28;20038;-66
2022/01/15 12:21:42;;;;;;;3.30;2.10;;;24.30;99.90;;;;;;5027551;28;20140;-65
2022/01/15 12:24:27;;;;;;;;;;;24.20;99.90;;;;;;5028138;28;20545;-66
2022/01/15 12:27:06;;;;;;;5.68;2.20;;;24.10;99.90;;;;;;5015067;28;19924;-66
2022/01/15 12:29:33;;;;;;;6.63;1.85;;;24.00;99.90;;;;;;5018016;28;20034;-65
2022/01/15 12:32:01;;;;;;;4.47;2.28;;;24.00;99.90;;;;;;5021190;28;20122;-64
2022/01/15 12:34:29;;;;;;;10.15;2.65;;;24.00;99.90;;;;;;5016779;28;20033;-64
2022/01/15 12:36:56;;;;;;;6.38;2.22;;;23.90;99.90;;;;;;5024358;28;20547;-64
2022/01/15 12:39:38;;;;;;;7.85;2.60;;;23.90;99.90;;;;;;5018389;28;20084;-64
2022/01/15 12:42:08;;;;;;;5.50;2.08;;;23.90;99.90;;;;;;5017887;28;20021;-64
2022/01/15 12:44:46;;;;;;;5.95;2.00;;;23.90;99.90;;;;;;5018459;28;20034;-64
2022/01/15 12:47:15;;;;;;;5.10;1.88;;;23.90;99.90;;;;;;5029982;28;20037;-64
2022/01/15 12:49:54;;;;;;;6.32;1.90;;;23.80;99.90;;;;;;5021128;28;20049;-65
2022/01/15 12:52:24;;;;;;;4.03;1.45;;;23.80;99.90;;;;;;5022487;28;20490;-64
2022/01/15 12:54:53;;;;;;;6.38;2.13;;;23.80;99.90;;;;;;5016416;28;20025;-64
2022/01/15 12:58:04;;;;;;;8.77;2.47;;;23.70;99.90;;;;;;5023424;28;20026;-65
2022/01/15 13:00:35;;;;;;;6.03;1.75;;;23.70;99.90;;;;;;5026180;28;20041;-65
2022/01/15 13:03:09;;;;;;;5.03;1.75;;;23.70;99.90;;;;;;5026624;28;20030;-65
2022/01/15 13:05:42;;;;;;;5.55;1.70;;;23.60;99.90;;;;;;5023117;28;20031;-64
2022/01/15 13:08:14;;;;;;;5.55;1.65;;;23.60;99.90;;;;;;5024291;28;20061;-64
2022/01/15 13:10:49;;;;;;;4.72;1.83;;;23.60;99.90;;;;;;5028191;28;20517;-64
2022/01/15 13:13:38;;;;;;;10.13;2.22;;;23.60;99.90;;;;;;5020718;28;20030;-64
2022/01/15 13:16:22;;;;;;;3.20;1.40;;;23.60;99.90;;;;;;5013938;28;20036;-64